sensor_id;sensor_type;location;lat;lon;timestamp;P1;durP1;ratioP1;P2;durP2;ratioP2
52124;SDS011;38119;52.710;6.398;2023-03-14T00:00:04;16.52;;;4.45;;
52124;SDS011;38119;52.710;6.398;2023-03-14T00:02:39;20.70;;;4.20;;
52124;SDS011;38119;52.710;6.398;2023-03-14T00:05:04;25.77;;;4.53;;
52124;SDS011;38119;52.710;6.398;2023-03-14T00:07:34;24.58;;;4.60;;
52124;SDS011;38119;52.710;6.398;2023-03-14T00:10:05;24.30;;;5.60;;
52124;SDS011;38119;52.710;6.398;2023-03-14T00:12:35;20.30;;;4.68;;
52124;SDS011;38119;52.710;6.398;2023-03-14T00:15:00;25.27;;;5.00;;
52124;SDS011;38119;52.710;6.398;2023-03-14T00:17:28;20.40;;;4.55;;
52124;SDS011;38119;52.710;6.398;2023-03-14T00:19:55;24.77;;;5.45;;
52124;SDS011;38119;52.710;6.398;2023-03-14T00:22:20;20.95;;;4.75;;
52124;SDS011;38119;52.710;6.398;2023-03-14T00:24:46;19.40;;;5.00;;
52124;SDS011;38119;52.710;6.398;2023-03-14T00:27:12;24.08;;;4.55;;
52124;SDS011;38119;52.710;6.398;2023-03-14T00:29:38;26.92;;;5.13;;
52124;SDS011;38119;52.710;6.398;2023-03-14T00:32:04;18.17;;;4.40;;
52124;SDS011;38119;52.710;6.398;2023-03-14T00:34:30;19.45;;;4.55;;
52124;SDS011;38119;52.710;6.398;2023-03-14T00:36:56;17.80;;;4.40;;
52124;SDS011;38119;52.710;6.398;2023-03-14T00:39:22;22.55;;;5.20;;
52124;SDS011;38119;52.710;6.398;2023-03-14T00:41:48;18.50;;;5.13;;
52124;SDS011;38119;52.710;6.398;2023-03-14T00:44:13;23.10;;;5.15;;
52124;SDS011;38119;52.710;6.398;2023-03-14T00:46:39;19.80;;;5.05;;
52124;SDS011;38119;52.710;6.398;2023-03-14T00:49:04;18.25;;;5.18;;
52124;SDS011;38119;52.710;6.398;2023-03-14T00:51:30;15.63;;;4.63;;
52124;SDS011;38119;52.710;6.398;2023-03-14T00:53:56;18.88;;;4.95;;
52124;SDS011;38119;52.710;6.398;2023-03-14T00:56:21;18.27;;;5.15;;
52124;SDS011;38119;52.710;6.398;2023-03-14T00:58:47;15.40;;;4.65;;
52124;SDS011;38119;52.710;6.398;2023-03-14T01:01:14;16.90;;;4.85;;
52124;SDS011;38119;52.710;6.398;2023-03-14T01:03:42;18.10;;;4.75;;
52124;SDS011;38119;52.710;6.398;2023-03-14T01:06:26;16.77;;;4.18;;
52124;SDS011;38119;52.710;6.398;2023-03-14T01:08:53;14.50;;;4.50;;
52124;SDS011;38119;52.710;6.398;2023-03-14T01:11:20;17.27;;;4.22;;
52124;SDS011;38119;52.710;6.398;2023-03-14T01:13:49;17.17;;;4.57;;
52124;SDS011;38119;52.710;6.398;2023-03-14T01:16:15;18.20;;;4.32;;
52124;SDS011;38119;52.710;6.398;2023-03-14T01:18:42;16.85;;;4.30;;
52124;SDS011;38119;52.710;6.398;2023-03-14T01:23:48;17.60;;;4.35;;
52124;SDS011;38119;52.710;6.398;2023-03-14T01:26:15;16.75;;;4.13;;
52124;SDS011;38119;52.710;6.398;2023-03-14T01:28:44;19.50;;;4.47;;
52124;SDS011;38119;52.710;6.398;2023-03-14T01:31:10;13.95;;;3.90;;
52124;SDS011;38119;52.710;6.398;2023-03-14T01:33:36;18.63;;;4.78;;
52124;SDS011;38119;52.710;6.398;2023-03-14T01:36:03;24.17;;;4.63;;
52124;SDS011;38119;52.710;6.398;2023-03-14T01:38:29;14.65;;;4.07;;
52124;SDS011;38119;52.710;6.398;2023-03-14T01:40:56;20.17;;;4.13;;
52124;SDS011;38119;52.710;6.398;2023-03-14T01:43:22;21.13;;;4.10;;
52124;SDS011;38119;52.710;6.398;2023-03-14T01:48:44;19.13;;;4.15;;
52124;SDS011;38119;52.710;6.398;2023-03-14T01:51:34;16.67;;;4.30;;
52124;SDS011;38119;52.710;6.398;2023-03-14T01:54:29;16.38;;;4.47;;
52124;SDS011;38119;52.710;6.398;2023-03-14T01:56:56;15.95;;;4.22;;
52124;SDS011;38119;52.710;6.398;2023-03-14T01:59:27;16.35;;;4.60;;
52124;SDS011;38119;52.710;6.398;2023-03-14T02:01:55;17.40;;;4.38;;
52124;SDS011;38119;52.710;6.398;2023-03-14T02:04:21;18.13;;;4.28;;
52124;SDS011;38119;52.710;6.398;2023-03-14T02:06:55;17.98;;;4.22;;
52124;SDS011;38119;52.710;6.398;2023-03-14T02:09:29;18.60;;;4.13;;
52124;SDS011;38119;52.710;6.398;2023-03-14T02:11:55;16.83;;;4.20;;
52124;SDS011;38119;52.710;6.398;2023-03-14T02:14:31;18.98;;;4.30;;
52124;SDS011;38119;52.710;6.398;2023-03-14T02:16:58;18.45;;;4.47;;
52124;SDS011;38119;52.710;6.398;2023-03-14T02:19:29;14.40;;;4.40;;
52124;SDS011;38119;52.710;6.398;2023-03-14T02:22:09;18.17;;;4.18;;
52124;SDS011;38119;52.710;6.398;2023-03-14T02:27:15;15.80;;;4.20;;
52124;SDS011;38119;52.710;6.398;2023-03-14T02:29:47;17.40;;;4.50;;
52124;SDS011;38119;52.710;6.398;2023-03-14T02:32:17;15.63;;;3.88;;
52124;SDS011;38119;52.710;6.398;2023-03-14T02:34:44;20.33;;;4.03;;
52124;SDS011;38119;52.710;6.398;2023-03-14T02:37:15;12.57;;;3.72;;
52124;SDS011;38119;52.710;6.398;2023-03-14T02:39:44;16.38;;;3.60;;
52124;SDS011;38119;52.710;6.398;2023-03-14T02:42:11;14.13;;;3.30;;
52124;SDS011;38119;52.710;6.398;2023-03-14T02:44:47;15.25;;;3.40;;
52124;SDS011;38119;52.710;6.398;2023-03-14T02:47:16;11.05;;;2.90;;
52124;SDS011;38119;52.710;6.398;2023-03-14T02:49:43;11.85;;;3.03;;
52124;SDS011;38119;52.710;6.398;2023-03-14T02:52:09;7.68;;;3.22;;
52124;SDS011;38119;52.710;6.398;2023-03-14T02:54:35;12.98;;;3.90;;
52124;SDS011;38119;52.710;6.398;2023-03-14T02:57:00;12.32;;;3.13;;
52124;SDS011;38119;52.710;6.398;2023-03-14T02:59:28;9.02;;;3.15;;
52124;SDS011;38119;52.710;6.398;2023-03-14T03:01:53;8.10;;;3.25;;
52124;SDS011;38119;52.710;6.398;2023-03-14T03:04:19;11.23;;;3.55;;
52124;SDS011;38119;52.710;6.398;2023-03-14T03:06:44;12.05;;;3.20;;
52124;SDS011;38119;52.710;6.398;2023-03-14T03:09:10;8.20;;;3.22;;
52124;SDS011;38119;52.710;6.398;2023-03-14T03:11:36;11.25;;;3.55;;
52124;SDS011;38119;52.710;6.398;2023-03-14T03:14:01;11.50;;;3.15;;
52124;SDS011;38119;52.710;6.398;2023-03-14T03:16:27;10.75;;;3.45;;
52124;SDS011;38119;52.710;6.398;2023-03-14T03:18:52;13.88;;;3.70;;
52124;SDS011;38119;52.710;6.398;2023-03-14T03:21:18;13.18;;;4.22;;
52124;SDS011;38119;52.710;6.398;2023-03-14T03:23:48;11.45;;;3.83;;
52124;SDS011;38119;52.710;6.398;2023-03-14T03:26:13;14.27;;;3.75;;
52124;SDS011;38119;52.710;6.398;2023-03-14T03:28:39;12.15;;;3.80;;
52124;SDS011;38119;52.710;6.398;2023-03-14T03:31:08;16.23;;;4.00;;
52124;SDS011;38119;52.710;6.398;2023-03-14T03:33:35;11.75;;;4.22;;
52124;SDS011;38119;52.710;6.398;2023-03-14T03:36:02;14.60;;;3.95;;
52124;SDS011;38119;52.710;6.398;2023-03-14T03:38:27;15.23;;;3.60;;
52124;SDS011;38119;52.710;6.398;2023-03-14T03:40:53;14.10;;;3.22;;
52124;SDS011;38119;52.710;6.398;2023-03-14T03:43:18;17.23;;;3.30;;
52124;SDS011;38119;52.710;6.398;2023-03-14T03:45:44;13.50;;;3.80;;
52124;SDS011;38119;52.710;6.398;2023-03-14T03:48:10;13.15;;;3.42;;
52124;SDS011;38119;52.710;6.398;2023-03-14T03:50:35;13.23;;;3.78;;
52124;SDS011;38119;52.710;6.398;2023-03-14T03:53:01;11.52;;;3.15;;
52124;SDS011;38119;52.710;6.398;2023-03-14T03:55:26;12.77;;;3.45;;
52124;SDS011;38119;52.710;6.398;2023-03-14T03:57:53;12.13;;;3.25;;
52124;SDS011;38119;52.710;6.398;2023-03-14T04:00:19;16.02;;;3.65;;
52124;SDS011;38119;52.710;6.398;2023-03-14T04:02:44;13.82;;;3.55;;
52124;SDS011;38119;52.710;6.398;2023-03-14T04:05:10;13.82;;;3.50;;
52124;SDS011;38119;52.710;6.398;2023-03-14T04:07:35;10.82;;;3.42;;
52124;SDS011;38119;52.710;6.398;2023-03-14T04:10:01;11.52;;;3.00;;
52124;SDS011;38119;52.710;6.398;2023-03-14T04:12:29;15.05;;;3.88;;
52124;SDS011;38119;52.710;6.398;2023-03-14T04:14:55;13.48;;;3.67;;
52124;SDS011;38119;52.710;6.398;2023-03-14T04:17:20;11.85;;;4.00;;
52124;SDS011;38119;52.710;6.398;2023-03-14T04:19:46;12.63;;;4.55;;
52124;SDS011;38119;52.710;6.398;2023-03-14T04:22:14;14.55;;;4.13;;
52124;SDS011;38119;52.710;6.398;2023-03-14T04:24:40;11.10;;;3.83;;
52124;SDS011;38119;52.710;6.398;2023-03-14T04:27:05;10.50;;;3.42;;
52124;SDS011;38119;52.710;6.398;2023-03-14T04:29:31;12.07;;;4.22;;
52124;SDS011;38119;52.710;6.398;2023-03-14T04:31:56;12.02;;;3.25;;
52124;SDS011;38119;52.710;6.398;2023-03-14T04:34:22;10.88;;;4.13;;
52124;SDS011;38119;52.710;6.398;2023-03-14T04:36:47;12.38;;;4.35;;
52124;SDS011;38119;52.710;6.398;2023-03-14T04:39:13;11.32;;;3.92;;
52124;SDS011;38119;52.710;6.398;2023-03-14T04:41:38;12.25;;;4.50;;
52124;SDS011;38119;52.710;6.398;2023-03-14T04:44:04;13.55;;;4.50;;
52124;SDS011;38119;52.710;6.398;2023-03-14T04:46:29;13.55;;;4.68;;
52124;SDS011;38119;52.710;6.398;2023-03-14T04:48:55;11.50;;;4.15;;
52124;SDS011;38119;52.710;6.398;2023-03-14T04:51:21;10.50;;;3.92;;
52124;SDS011;38119;52.710;6.398;2023-03-14T04:53:48;12.43;;;3.83;;
52124;SDS011;38119;52.710;6.398;2023-03-14T04:56:13;15.57;;;4.50;;
52124;SDS011;38119;52.710;6.398;2023-03-14T04:58:39;15.02;;;4.35;;
52124;SDS011;38119;52.710;6.398;2023-03-14T05:01:05;10.93;;;3.50;;
52124;SDS011;38119;52.710;6.398;2023-03-14T05:03:31;12.65;;;4.80;;
52124;SDS011;38119;52.710;6.398;2023-03-14T05:05:56;11.25;;;4.18;;
52124;SDS011;38119;52.710;6.398;2023-03-14T05:08:23;11.38;;;3.75;;
52124;SDS011;38119;52.710;6.398;2023-03-14T05:10:53;13.55;;;4.35;;
52124;SDS011;38119;52.710;6.398;2023-03-14T05:13:19;14.05;;;3.90;;
52124;SDS011;38119;52.710;6.398;2023-03-14T05:15:44;16.42;;;4.38;;
52124;SDS011;38119;52.710;6.398;2023-03-14T05:18:10;12.40;;;4.03;;
52124;SDS011;38119;52.710;6.398;2023-03-14T05:20:36;15.32;;;4.80;;
52124;SDS011;38119;52.710;6.398;2023-03-14T05:23:01;11.27;;;4.30;;
52124;SDS011;38119;52.710;6.398;2023-03-14T05:25:27;10.88;;;3.65;;
52124;SDS011;38119;52.710;6.398;2023-03-14T05:27:55;13.00;;;4.50;;
52124;SDS011;38119;52.710;6.398;2023-03-14T05:30:21;10.75;;;3.65;;
52124;SDS011;38119;52.710;6.398;2023-03-14T05:32:47;11.90;;;3.80;;
52124;SDS011;38119;52.710;6.398;2023-03-14T05:35:13;13.40;;;3.80;;
52124;SDS011;38119;52.710;6.398;2023-03-14T05:37:39;11.20;;;3.42;;
52124;SDS011;38119;52.710;6.398;2023-03-14T05:40:05;16.33;;;3.90;;
52124;SDS011;38119;52.710;6.398;2023-03-14T05:42:31;10.88;;;3.63;;
52124;SDS011;38119;52.710;6.398;2023-03-14T05:44:57;16.88;;;4.22;;
52124;SDS011;38119;52.710;6.398;2023-03-14T05:47:23;13.82;;;3.47;;
52124;SDS011;38119;52.710;6.398;2023-03-14T05:49:49;13.43;;;3.80;;
52124;SDS011;38119;52.710;6.398;2023-03-14T05:52:15;11.90;;;3.78;;
52124;SDS011;38119;52.710;6.398;2023-03-14T05:54:40;11.63;;;3.53;;
52124;SDS011;38119;52.710;6.398;2023-03-14T05:57:06;10.07;;;4.13;;
52124;SDS011;38119;52.710;6.398;2023-03-14T05:59:31;14.38;;;3.60;;
52124;SDS011;38119;52.710;6.398;2023-03-14T06:01:57;11.77;;;3.80;;
52124;SDS011;38119;52.710;6.398;2023-03-14T06:04:23;11.75;;;3.70;;
52124;SDS011;38119;52.710;6.398;2023-03-14T06:06:49;13.77;;;3.83;;
52124;SDS011;38119;52.710;6.398;2023-03-14T06:09:14;14.25;;;3.78;;
52124;SDS011;38119;52.710;6.398;2023-03-14T06:11:40;8.80;;;3.45;;
52124;SDS011;38119;52.710;6.398;2023-03-14T06:14:06;13.85;;;4.18;;
52124;SDS011;38119;52.710;6.398;2023-03-14T06:16:32;14.38;;;4.22;;
52124;SDS011;38119;52.710;6.398;2023-03-14T06:18:57;12.18;;;4.25;;
52124;SDS011;38119;52.710;6.398;2023-03-14T06:21:23;16.25;;;4.72;;
52124;SDS011;38119;52.710;6.398;2023-03-14T06:23:48;14.52;;;4.80;;
52124;SDS011;38119;52.710;6.398;2023-03-14T06:26:14;15.48;;;4.40;;
52124;SDS011;38119;52.710;6.398;2023-03-14T06:28:40;13.88;;;4.43;;
52124;SDS011;38119;52.710;6.398;2023-03-14T06:31:05;10.95;;;5.47;;
52124;SDS011;38119;52.710;6.398;2023-03-14T06:33:31;12.60;;;4.60;;
52124;SDS011;38119;52.710;6.398;2023-03-14T06:35:57;13.02;;;4.50;;
52124;SDS011;38119;52.710;6.398;2023-03-14T06:38:22;16.02;;;4.78;;
52124;SDS011;38119;52.710;6.398;2023-03-14T06:40:48;14.30;;;4.68;;
52124;SDS011;38119;52.710;6.398;2023-03-14T06:43:14;14.80;;;3.65;;
52124;SDS011;38119;52.710;6.398;2023-03-14T06:45:39;13.35;;;3.80;;
52124;SDS011;38119;52.710;6.398;2023-03-14T06:48:05;12.88;;;4.75;;
52124;SDS011;38119;52.710;6.398;2023-03-14T06:50:30;15.18;;;3.95;;
52124;SDS011;38119;52.710;6.398;2023-03-14T06:52:56;8.68;;;3.88;;
52124;SDS011;38119;52.710;6.398;2023-03-14T06:55:21;10.73;;;4.18;;
52124;SDS011;38119;52.710;6.398;2023-03-14T06:57:47;12.63;;;4.35;;
52124;SDS011;38119;52.710;6.398;2023-03-14T07:00:13;12.52;;;4.35;;
52124;SDS011;38119;52.710;6.398;2023-03-14T07:02:39;13.73;;;4.85;;
52124;SDS011;38119;52.710;6.398;2023-03-14T07:05:05;5.57;;;3.05;;
52124;SDS011;38119;52.710;6.398;2023-03-14T07:07:31;7.75;;;2.60;;
52124;SDS011;38119;52.710;6.398;2023-03-14T07:09:57;4.10;;;1.92;;
52124;SDS011;38119;52.710;6.398;2023-03-14T07:12:23;5.15;;;2.10;;
52124;SDS011;38119;52.710;6.398;2023-03-14T07:14:48;5.38;;;1.75;;
52124;SDS011;38119;52.710;6.398;2023-03-14T07:17:14;4.90;;;1.70;;
52124;SDS011;38119;52.710;6.398;2023-03-14T07:19:39;5.20;;;1.60;;
52124;SDS011;38119;52.710;6.398;2023-03-14T07:22:05;5.47;;;1.65;;
52124;SDS011;38119;52.710;6.398;2023-03-14T07:24:31;5.40;;;2.22;;
52124;SDS011;38119;52.710;6.398;2023-03-14T07:26:56;6.47;;;2.20;;
52124;SDS011;38119;52.710;6.398;2023-03-14T07:29:22;10.48;;;2.33;;
52124;SDS011;38119;52.710;6.398;2023-03-14T07:31:48;7.80;;;2.35;;
52124;SDS011;38119;52.710;6.398;2023-03-14T07:34:14;6.05;;;2.13;;
52124;SDS011;38119;52.710;6.398;2023-03-14T07:36:39;5.43;;;1.52;;
52124;SDS011;38119;52.710;6.398;2023-03-14T07:39:05;9.57;;;1.30;;
52124;SDS011;38119;52.710;6.398;2023-03-14T07:41:31;3.72;;;0.88;;
52124;SDS011;38119;52.710;6.398;2023-03-14T07:43:56;2.88;;;1.10;;
52124;SDS011;38119;52.710;6.398;2023-03-14T07:46:22;4.78;;;1.00;;
52124;SDS011;38119;52.710;6.398;2023-03-14T07:48:48;3.67;;;1.00;;
52124;SDS011;38119;52.710;6.398;2023-03-14T07:51:16;4.95;;;1.00;;
52124;SDS011;38119;52.710;6.398;2023-03-14T07:53:42;4.63;;;0.73;;
52124;SDS011;38119;52.710;6.398;2023-03-14T07:56:08;7.53;;;0.90;;
52124;SDS011;38119;52.710;6.398;2023-03-14T07:58:34;3.30;;;0.80;;
52124;SDS011;38119;52.710;6.398;2023-03-14T08:01:00;3.55;;;0.70;;
52124;SDS011;38119;52.710;6.398;2023-03-14T08:03:25;5.38;;;1.00;;
52124;SDS011;38119;52.710;6.398;2023-03-14T08:05:51;3.05;;;0.60;;
52124;SDS011;38119;52.710;6.398;2023-03-14T08:08:17;6.28;;;1.73;;
52124;SDS011;38119;52.710;6.398;2023-03-14T08:10:43;3.72;;;1.10;;
52124;SDS011;38119;52.710;6.398;2023-03-14T08:13:09;6.90;;;1.70;;
52124;SDS011;38119;52.710;6.398;2023-03-14T08:15:35;5.85;;;1.38;;
52124;SDS011;38119;52.710;6.398;2023-03-14T08:18:01;4.32;;;2.08;;
52124;SDS011;38119;52.710;6.398;2023-03-14T08:20:28;4.88;;;2.00;;
52124;SDS011;38119;52.710;6.398;2023-03-14T08:23:00;10.32;;;2.67;;
52124;SDS011;38119;52.710;6.398;2023-03-14T08:25:26;8.95;;;4.40;;
52124;SDS011;38119;52.710;6.398;2023-03-14T08:27:52;6.13;;;2.50;;
52124;SDS011;38119;52.710;6.398;2023-03-14T08:30:19;6.07;;;2.25;;
52124;SDS011;38119;52.710;6.398;2023-03-14T08:32:45;5.80;;;2.15;;
52124;SDS011;38119;52.710;6.398;2023-03-14T08:35:11;5.35;;;1.80;;
52124;SDS011;38119;52.710;6.398;2023-03-14T08:37:37;4.78;;;1.40;;
52124;SDS011;38119;52.710;6.398;2023-03-14T08:40:03;3.08;;;0.75;;
52124;SDS011;38119;52.710;6.398;2023-03-14T08:42:34;4.32;;;1.52;;
52124;SDS011;38119;52.710;6.398;2023-03-14T08:45:01;2.65;;;0.93;;
52124;SDS011;38119;52.710;6.398;2023-03-14T08:47:26;3.30;;;0.93;;
52124;SDS011;38119;52.710;6.398;2023-03-14T08:49:52;2.67;;;0.93;;
52124;SDS011;38119;52.710;6.398;2023-03-14T08:52:18;5.13;;;0.90;;
52124;SDS011;38119;52.710;6.398;2023-03-14T08:54:43;3.63;;;1.02;;
52124;SDS011;38119;52.710;6.398;2023-03-14T08:57:09;3.38;;;1.17;;
52124;SDS011;38119;52.710;6.398;2023-03-14T08:59:35;4.40;;;1.50;;
52124;SDS011;38119;52.710;6.398;2023-03-14T09:02:01;4.40;;;1.58;;
52124;SDS011;38119;52.710;6.398;2023-03-14T09:04:28;6.95;;;1.55;;
52124;SDS011;38119;52.710;6.398;2023-03-14T09:06:54;6.10;;;1.52;;
52124;SDS011;38119;52.710;6.398;2023-03-14T09:09:22;5.85;;;1.27;;
52124;SDS011;38119;52.710;6.398;2023-03-14T09:11:49;2.95;;;1.08;;
52124;SDS011;38119;52.710;6.398;2023-03-14T09:14:14;7.97;;;1.40;;
52124;SDS011;38119;52.710;6.398;2023-03-14T09:16:40;5.88;;;1.13;;
52124;SDS011;38119;52.710;6.398;2023-03-14T09:19:05;4.32;;;0.80;;
52124;SDS011;38119;52.710;6.398;2023-03-14T09:21:31;5.35;;;1.38;;
52124;SDS011;38119;52.710;6.398;2023-03-14T09:23:56;3.20;;;1.00;;
52124;SDS011;38119;52.710;6.398;2023-03-14T09:26:22;6.82;;;1.17;;
52124;SDS011;38119;52.710;6.398;2023-03-14T09:28:48;2.88;;;0.98;;
52124;SDS011;38119;52.710;6.398;2023-03-14T09:31:13;7.43;;;1.40;;
52124;SDS011;38119;52.710;6.398;2023-03-14T09:33:39;9.27;;;1.35;;
52124;SDS011;38119;52.710;6.398;2023-03-14T09:36:05;6.68;;;1.30;;
52124;SDS011;38119;52.710;6.398;2023-03-14T09:38:32;7.28;;;1.60;;
52124;SDS011;38119;52.710;6.398;2023-03-14T09:40:59;10.57;;;1.60;;
52124;SDS011;38119;52.710;6.398;2023-03-14T09:43:31;7.10;;;1.58;;
52124;SDS011;38119;52.710;6.398;2023-03-14T09:46:00;10.25;;;1.60;;
52124;SDS011;38119;52.710;6.398;2023-03-14T09:48:29;8.98;;;1.67;;
52124;SDS011;38119;52.710;6.398;2023-03-14T09:50:57;8.27;;;1.67;;
52124;SDS011;38119;52.710;6.398;2023-03-14T09:53:28;12.65;;;1.88;;
52124;SDS011;38119;52.710;6.398;2023-03-14T09:56:04;15.75;;;2.17;;
52124;SDS011;38119;52.710;6.398;2023-03-14T09:58:38;13.98;;;2.03;;
52124;SDS011;38119;52.710;6.398;2023-03-14T10:01:07;12.18;;;2.40;;
52124;SDS011;38119;52.710;6.398;2023-03-14T10:03:39;12.18;;;2.50;;
52124;SDS011;38119;52.710;6.398;2023-03-14T10:06:15;16.98;;;2.53;;
52124;SDS011;38119;52.710;6.398;2023-03-14T10:08:41;14.18;;;2.65;;
52124;SDS011;38119;52.710;6.398;2023-03-14T10:11:12;14.80;;;2.30;;
52124;SDS011;38119;52.710;6.398;2023-03-14T10:13:52;13.15;;;2.25;;
52124;SDS011;38119;52.710;6.398;2023-03-14T10:16:30;8.85;;;1.90;;
52124;SDS011;38119;52.710;6.398;2023-03-14T10:19:05;11.02;;;1.98;;
52124;SDS011;38119;52.710;6.398;2023-03-14T10:21:43;16.40;;;2.60;;
52124;SDS011;38119;52.710;6.398;2023-03-14T10:24:19;12.93;;;2.65;;
52124;SDS011;38119;52.710;6.398;2023-03-14T10:26:49;12.60;;;2.53;;
52124;SDS011;38119;52.710;6.398;2023-03-14T10:29:18;19.08;;;3.47;;
52124;SDS011;38119;52.710;6.398;2023-03-14T10:31:48;14.18;;;2.65;;
52124;SDS011;38119;52.710;6.398;2023-03-14T10:34:21;20.90;;;3.20;;
52124;SDS011;38119;52.710;6.398;2023-03-14T10:36:51;16.02;;;2.72;;
52124;SDS011;38119;52.710;6.398;2023-03-14T10:39:23;17.73;;;3.38;;
52124;SDS011;38119;52.710;6.398;2023-03-14T10:41:53;13.73;;;2.92;;
52124;SDS011;38119;52.710;6.398;2023-03-14T10:44:28;15.55;;;2.97;;
52124;SDS011;38119;52.710;6.398;2023-03-14T10:47:01;21.90;;;3.72;;
52124;SDS011;38119;52.710;6.398;2023-03-14T10:49:33;18.45;;;2.80;;
52124;SDS011;38119;52.710;6.398;2023-03-14T10:52:01;16.67;;;3.53;;
52124;SDS011;38119;52.710;6.398;2023-03-14T10:54:49;17.85;;;3.38;;
52124;SDS011;38119;52.710;6.398;2023-03-14T10:57:21;21.00;;;3.72;;
52124;SDS011;38119;52.710;6.398;2023-03-14T10:59:47;16.60;;;3.28;;
52124;SDS011;38119;52.710;6.398;2023-03-14T11:08:19;19.05;;;2.97;;
52124;SDS011;38119;52.710;6.398;2023-03-14T11:10:54;17.15;;;2.42;;
52124;SDS011;38119;52.710;6.398;2023-03-14T11:13:31;16.88;;;2.35;;
52124;SDS011;38119;52.710;6.398;2023-03-14T11:18:57;15.18;;;2.42;;
52124;SDS011;38119;52.710;6.398;2023-03-14T11:21:35;15.85;;;2.58;;
52124;SDS011;38119;52.710;6.398;2023-03-14T11:26:59;14.30;;;2.72;;
52124;SDS011;38119;52.710;6.398;2023-03-14T11:32:01;10.88;;;2.55;;
52124;SDS011;38119;52.710;6.398;2023-03-14T11:34:32;17.13;;;2.28;;
52124;SDS011;38119;52.710;6.398;2023-03-14T11:37:12;11.30;;;2.45;;
52124;SDS011;38119;52.710;6.398;2023-03-14T11:39:47;12.35;;;2.40;;
52124;SDS011;38119;52.710;6.398;2023-03-14T11:42:21;11.20;;;2.00;;
52124;SDS011;38119;52.710;6.398;2023-03-14T11:44:48;14.95;;;2.65;;
52124;SDS011;38119;52.710;6.398;2023-03-14T11:47:29;11.48;;;2.33;;
52124;SDS011;38119;52.710;6.398;2023-03-14T11:50:05;9.60;;;1.98;;
52124;SDS011;38119;52.710;6.398;2023-03-14T11:52:41;8.75;;;2.20;;
52124;SDS011;38119;52.710;6.398;2023-03-14T11:55:22;9.75;;;1.73;;
52124;SDS011;38119;52.710;6.398;2023-03-14T11:57:58;11.60;;;2.00;;
52124;SDS011;38119;52.710;6.398;2023-03-14T12:00:28;14.95;;;2.35;;
52124;SDS011;38119;52.710;6.398;2023-03-14T12:05:56;9.25;;;2.50;;
52124;SDS011;38119;52.710;6.398;2023-03-14T12:11:02;12.10;;;2.08;;
52124;SDS011;38119;52.710;6.398;2023-03-14T12:13:36;11.02;;;2.60;;
52124;SDS011;38119;52.710;6.398;2023-03-14T12:16:04;9.02;;;2.08;;
52124;SDS011;38119;52.710;6.398;2023-03-14T12:21:55;8.02;;;1.40;;
52124;SDS011;38119;52.710;6.398;2023-03-14T12:24:35;7.55;;;1.58;;
52124;SDS011;38119;52.710;6.398;2023-03-14T12:27:03;8.70;;;1.50;;
52124;SDS011;38119;52.710;6.398;2023-03-14T12:29:30;6.35;;;1.17;;
52124;SDS011;38119;52.710;6.398;2023-03-14T12:32:06;6.07;;;1.50;;
52124;SDS011;38119;52.710;6.398;2023-03-14T12:34:34;7.30;;;1.67;;
52124;SDS011;38119;52.710;6.398;2023-03-14T12:37:12;3.83;;;1.13;;
52124;SDS011;38119;52.710;6.398;2023-03-14T12:42:36;5.78;;;1.35;;
52124;SDS011;38119;52.710;6.398;2023-03-14T12:47:55;7.57;;;1.42;;
52124;SDS011;38119;52.710;6.398;2023-03-14T12:50:42;8.18;;;1.50;;
52124;SDS011;38119;52.710;6.398;2023-03-14T12:53:24;6.75;;;1.58;;
52124;SDS011;38119;52.710;6.398;2023-03-14T13:01:56;9.65;;;2.05;;
52124;SDS011;38119;52.710;6.398;2023-03-14T13:04:34;8.75;;;1.75;;
52124;SDS011;38119;52.710;6.398;2023-03-14T13:07:02;9.70;;;2.00;;
52124;SDS011;38119;52.710;6.398;2023-03-14T13:12:08;9.13;;;1.67;;
52124;SDS011;38119;52.710;6.398;2023-03-14T13:14:40;10.10;;;2.08;;
52124;SDS011;38119;52.710;6.398;2023-03-14T13:17:11;13.13;;;2.10;;
52124;SDS011;38119;52.710;6.398;2023-03-14T13:19:38;8.40;;;1.63;;
52124;SDS011;38119;52.710;6.398;2023-03-14T13:22:05;9.38;;;1.60;;
52124;SDS011;38119;52.710;6.398;2023-03-14T13:24:39;11.32;;;1.60;;
52124;SDS011;38119;52.710;6.398;2023-03-14T13:27:05;7.97;;;1.70;;
52124;SDS011;38119;52.710;6.398;2023-03-14T13:29:43;4.80;;;1.40;;
52124;SDS011;38119;52.710;6.398;2023-03-14T13:34:47;6.72;;;1.65;;
52124;SDS011;38119;52.710;6.398;2023-03-14T13:37:21;9.73;;;1.60;;
52124;SDS011;38119;52.710;6.398;2023-03-14T13:39:51;11.13;;;1.95;;
52124;SDS011;38119;52.710;6.398;2023-03-14T13:42:20;9.82;;;1.58;;
52124;SDS011;38119;52.710;6.398;2023-03-14T13:44:46;7.15;;;1.70;;
52124;SDS011;38119;52.710;6.398;2023-03-14T13:47:16;9.18;;;1.80;;
52124;SDS011;38119;52.710;6.398;2023-03-14T13:49:44;7.00;;;1.50;;
52124;SDS011;38119;52.710;6.398;2023-03-14T13:54:52;4.13;;;1.20;;
52124;SDS011;38119;52.710;6.398;2023-03-14T13:57:21;7.22;;;1.35;;
52124;SDS011;38119;52.710;6.398;2023-03-14T14:00:03;6.45;;;1.30;;
52124;SDS011;38119;52.710;6.398;2023-03-14T14:02:35;6.68;;;1.67;;
52124;SDS011;38119;52.710;6.398;2023-03-14T14:05:03;11.38;;;1.48;;
52124;SDS011;38119;52.710;6.398;2023-03-14T14:07:29;7.82;;;1.45;;
52124;SDS011;38119;52.710;6.398;2023-03-14T14:09:55;6.55;;;1.55;;
52124;SDS011;38119;52.710;6.398;2023-03-14T14:12:27;8.27;;;1.50;;
52124;SDS011;38119;52.710;6.398;2023-03-14T14:17:49;7.32;;;1.67;;
52124;SDS011;38119;52.710;6.398;2023-03-14T14:20:20;6.32;;;1.42;;
52124;SDS011;38119;52.710;6.398;2023-03-14T14:22:49;7.77;;;1.50;;
52124;SDS011;38119;52.710;6.398;2023-03-14T14:25:19;9.75;;;1.70;;
52124;SDS011;38119;52.710;6.398;2023-03-14T14:27:47;7.70;;;2.10;;
52124;SDS011;38119;52.710;6.398;2023-03-14T14:32:42;11.48;;;7.00;;
52124;SDS011;38119;52.710;6.398;2023-03-14T14:35:25;12.77;;;7.93;;
52124;SDS011;38119;52.710;6.398;2023-03-14T14:37:57;6.93;;;3.03;;
52124;SDS011;38119;52.710;6.398;2023-03-14T14:40:29;8.63;;;2.47;;
52124;SDS011;38119;52.710;6.398;2023-03-14T14:43:01;62.50;;;50.22;;
52124;SDS011;38119;52.710;6.398;2023-03-14T14:45:28;40.65;;;26.08;;
52124;SDS011;38119;52.710;6.398;2023-03-14T14:47:55;30.65;;;21.23;;
52124;SDS011;38119;52.710;6.398;2023-03-14T14:52:59;25.65;;;17.80;;
52124;SDS011;38119;52.710;6.398;2023-03-14T14:55:49;34.17;;;21.58;;
52124;SDS011;38119;52.710;6.398;2023-03-14T15:00:51;13.80;;;8.18;;
52124;SDS011;38119;52.710;6.398;2023-03-14T15:03:25;11.98;;;5.93;;
52124;SDS011;38119;52.710;6.398;2023-03-14T15:05:53;11.10;;;4.35;;
52124;SDS011;38119;52.710;6.398;2023-03-14T15:08:20;8.38;;;3.00;;
52124;SDS011;38119;52.710;6.398;2023-03-14T15:10:46;5.57;;;1.70;;
52124;SDS011;38119;52.710;6.398;2023-03-14T15:13:11;5.75;;;2.00;;
52124;SDS011;38119;52.710;6.398;2023-03-14T15:15:37;8.32;;;1.85;;
52124;SDS011;38119;52.710;6.398;2023-03-14T15:18:08;9.27;;;3.10;;
52124;SDS011;38119;52.710;6.398;2023-03-14T15:20:39;11.32;;;5.30;;
52124;SDS011;38119;52.710;6.398;2023-03-14T15:23:09;12.63;;;2.90;;
52124;SDS011;38119;52.710;6.398;2023-03-14T15:25:35;7.68;;;1.90;;
52124;SDS011;38119;52.710;6.398;2023-03-14T15:28:02;6.05;;;1.80;;
52124;SDS011;38119;52.710;6.398;2023-03-14T15:30:28;10.88;;;2.00;;
52124;SDS011;38119;52.710;6.398;2023-03-14T15:32:53;9.90;;;2.35;;
52124;SDS011;38119;52.710;6.398;2023-03-14T15:35:19;9.05;;;1.92;;
52124;SDS011;38119;52.710;6.398;2023-03-14T15:37:44;9.05;;;1.45;;
52124;SDS011;38119;52.710;6.398;2023-03-14T15:40:11;6.63;;;1.70;;
52124;SDS011;38119;52.710;6.398;2023-03-14T15:42:39;9.63;;;1.70;;
52124;SDS011;38119;52.710;6.398;2023-03-14T15:45:05;8.15;;;2.20;;